sensor_id;sensor_type;location;lat;lon;timestamp;pressure;altitude;pressure_sealevel;temperature;humidity
21111;BME280;10713;51.912;4.494;2023-01-28T00:02:06;102993.19;;;4.89;100.00
21111;BME280;10713;51.912;4.494;2023-01-28T00:04:32;102996.63;;;4.87;100.00
21111;BME280;10713;51.912;4.494;2023-01-28T00:06:57;102985.25;;;4.86;100.00
21111;BME280;10713;51.912;4.494;2023-01-28T00:09:23;103003.50;;;4.83;100.00
21111;BME280;10713;51.912;4.494;2023-01-28T00:11:48;103003.38;;;4.76;100.00
21111;BME280;10713;51.912;4.494;2023-01-28T00:14:14;102990.31;;;4.77;100.00
21111;BME280;10713;51.912;4.494;2023-01-28T00:16:39;102992.09;;;4.78;100.00
21111;BME280;10713;51.912;4.494;2023-01-28T00:19:04;102999.91;;;4.77;100.00
21111;BME280;10713;51.912;4.494;2023-01-28T00:21:30;102998.00;;;4.68;100.00
21111;BME280;10713;51.912;4.494;2023-01-28T00:23:56;102994.50;;;4.69;100.00
21111;BME280;10713;51.912;4.494;2023-01-28T00:26:22;102993.81;;;4.78;100.00
21111;BME280;10713;51.912;4.494;2023-01-28T00:28:49;102984.19;;;4.75;100.00
21111;BME280;10713;51.912;4.494;2023-01-28T00:31:17;102989.44;;;4.77;100.00
21111;BME280;10713;51.912;4.494;2023-01-28T00:33:44;102987.81;;;4.83;100.00
21111;BME280;10713;51.912;4.494;2023-01-28T00:36:11;102988.91;;;4.94;100.00
21111;BME280;10713;51.912;4.494;2023-01-28T00:38:36;102987.03;;;4.89;100.00
21111;BME280;10713;51.912;4.494;2023-01-28T00:41:12;102992.38;;;4.95;100.00
21111;BME280;10713;51.912;4.494;2023-01-28T00:43:38;102988.19;;;5.03;100.00
21111;BME280;10713;51.912;4.494;2023-01-28T00:46:04;102991.28;;;4.82;100.00
21111;BME280;10713;51.912;4.494;2023-01-28T00:48:32;102993.84;;;4.79;100.00
21111;BME280;10713;51.912;4.494;2023-01-28T00:50:57;102985.13;;;4.79;100.00
21111;BME280;10713;51.912;4.494;2023-01-28T00:53:23;102992.97;;;4.80;100.00
21111;BME280;10713;51.912;4.494;2023-01-28T00:55:48;102991.22;;;4.79;100.00
21111;BME280;10713;51.912;4.494;2023-01-28T00:58:13;102994.84;;;4.86;100.00
21111;BME280;10713;51.912;4.494;2023-01-28T01:00:39;102992.25;;;4.87;100.00
21111;BME280;10713;51.912;4.494;2023-01-28T01:03:04;102993.09;;;4.85;100.00
21111;BME280;10713;51.912;4.494;2023-01-28T01:05:29;102990.19;;;4.71;100.00
21111;BME280;10713;51.912;4.494;2023-01-28T01:07:55;102989.78;;;4.49;100.00
21111;BME280;10713;51.912;4.494;2023-01-28T01:10:21;102988.81;;;4.46;100.00
21111;BME280;10713;51.912;4.494;2023-01-28T01:12:48;102989.00;;;4.54;100.00
21111;BME280;10713;51.912;4.494;2023-01-28T01:15:15;102996.19;;;4.65;100.00
21111;BME280;10713;51.912;4.494;2023-01-28T01:17:43;102989.09;;;4.60;100.00
21111;BME280;10713;51.912;4.494;2023-01-28T01:20:14;102989.78;;;4.49;100.00
21111;BME280;10713;51.912;4.494;2023-01-28T01:22:40;102986.19;;;4.44;100.00
21111;BME280;10713;51.912;4.494;2023-01-28T01:25:07;102993.09;;;4.41;100.00
21111;BME280;10713;51.912;4.494;2023-01-28T01:27:32;102992.34;;;4.46;100.00
21111;BME280;10713;51.912;4.494;2023-01-28T01:29:58;102997.47;;;4.43;100.00
21111;BME280;10713;51.912;4.494;2023-01-28T01:32:33;102991.19;;;4.32;100.00
21111;BME280;10713;51.912;4.494;2023-01-28T01:35:03;102991.81;;;4.22;100.00
21111;BME280;10713;51.912;4.494;2023-01-28T01:37:33;102988.28;;;4.18;100.00
21111;BME280;10713;51.912;4.494;2023-01-28T01:39:59;102983.03;;;4.18;100.00
21111;BME280;10713;51.912;4.494;2023-01-28T01:42:26;102984.97;;;4.27;100.00
21111;BME280;10713;51.912;4.494;2023-01-28T01:44:56;102981.66;;;4.37;100.00
21111;BME280;10713;51.912;4.494;2023-01-28T01:47:38;102983.56;;;4.44;100.00
21111;BME280;10713;51.912;4.494;2023-01-28T01:50:33;102979.09;;;4.39;100.00
21111;BME280;10713;51.912;4.494;2023-01-28T01:53:03;102979.97;;;4.39;100.00
21111;BME280;10713;51.912;4.494;2023-01-28T01:55:32;102986.09;;;4.40;100.00
21111;BME280;10713;51.912;4.494;2023-01-28T01:58:03;102984.22;;;4.34;100.00
21111;BME280;10713;51.912;4.494;2023-01-28T02:00:30;102986.06;;;4.38;100.00
21111;BME280;10713;51.912;4.494;2023-01-28T02:02:56;102983.59;;;4.46;100.00
21111;BME280;10713;51.912;4.494;2023-01-28T02:05:23;102989.06;;;4.57;100.00
21111;BME280;10713;51.912;4.494;2023-01-28T02:07:51;102989.06;;;4.57;100.00
21111;BME280;10713;51.912;4.494;2023-01-28T02:10:19;102975.97;;;4.55;100.00
21111;BME280;10713;51.912;4.494;2023-01-28T02:12:53;102984.97;;;4.69;100.00
21111;BME280;10713;51.912;4.494;2023-01-28T02:15:22;102978.41;;;4.49;100.00
21111;BME280;10713;51.912;4.494;2023-01-28T02:17:49;102984.09;;;4.28;100.00
21111;BME280;10713;51.912;4.494;2023-01-28T02:20:21;102987.66;;;4.30;100.00
21111;BME280;10713;51.912;4.494;2023-01-28T02:30:34;102995.84;;;4.47;100.00
21111;BME280;10713;51.912;4.494;2023-01-28T02:33:10;103002.28;;;4.64;100.00
21111;BME280;10713;51.912;4.494;2023-01-28T02:35:46;103005.03;;;4.72;100.00
21111;BME280;10713;51.912;4.494;2023-01-28T02:38:21;103002.88;;;4.51;100.00
21111;BME280;10713;51.912;4.494;2023-01-28T02:40:52;103011.38;;;4.39;100.00
21111;BME280;10713;51.912;4.494;2023-01-28T02:43:31;103009.66;;;4.41;100.00
21111;BME280;10713;51.912;4.494;2023-01-28T02:45:57;103008.91;;;4.47;100.00
21111;BME280;10713;51.912;4.494;2023-01-28T02:48:42;103000.28;;;4.51;100.00
21111;BME280;10713;51.912;4.494;2023-01-28T02:54:11;102992.06;;;4.34;100.00
21111;BME280;10713;51.912;4.494;2023-01-28T02:56:45;102998.25;;;4.38;100.00
21111;BME280;10713;51.912;4.494;2023-01-28T03:04:30;103003.94;;;4.59;100.00
21111;BME280;10713;51.912;4.494;2023-01-28T03:07:01;102995.31;;;4.65;100.00
21111;BME280;10713;51.912;4.494;2023-01-28T03:09:29;103004.97;;;4.69;100.00
21111;BME280;10713;51.912;4.494;2023-01-28T03:12:07;102997.34;;;4.80;100.00
21111;BME280;10713;51.912;4.494;2023-01-28T03:17:50;102999.09;;;4.81;100.00
21111;BME280;10713;51.912;4.494;2023-01-28T03:20:50;103005.19;;;4.78;100.00
21111;BME280;10713;51.912;4.494;2023-01-28T03:24:04;103013.00;;;4.77;100.00
21111;BME280;10713;51.912;4.494;2023-01-28T03:27:10;103013.00;;;4.77;100.00
21111;BME280;10713;51.912;4.494;2023-01-28T03:29:59;103003.59;;;4.88;100.00
21111;BME280;10713;51.912;4.494;2023-01-28T03:32:45;103002.84;;;4.93;100.00
21111;BME280;10713;51.912;4.494;2023-01-28T03:35:32;103001.81;;;4.84;100.00
21111;BME280;10713;51.912;4.494;2023-01-28T03:38:19;103012.31;;;4.87;100.00
21111;BME280;10713;51.912;4.494;2023-01-28T03:40:50;103006.22;;;4.88;100.00
21111;BME280;10713;51.912;4.494;2023-01-28T03:43:16;103000.06;;;4.84;100.00
21111;BME280;10713;51.912;4.494;2023-01-28T03:45:41;103004.31;;;4.79;100.00
21111;BME280;10713;51.912;4.494;2023-01-28T03:48:07;103006.88;;;4.76;100.00
21111;BME280;10713;51.912;4.494;2023-01-28T03:50:32;103001.59;;;4.73;100.00
21111;BME280;10713;51.912;4.494;2023-01-28T03:52:57;102997.28;;;4.75;100.00
21111;BME280;10713;51.912;4.494;2023-01-28T03:55:36;103005.03;;;4.70;100.00
21111;BME280;10713;51.912;4.494;2023-01-28T03:58:02;102995.44;;;4.71;100.00
21111;BME280;10713;51.912;4.494;2023-01-28T04:00:30;102998.09;;;4.74;100.00
21111;BME280;10713;51.912;4.494;2023-01-28T04:02:57;103013.75;;;4.71;100.00
21111;BME280;10713;51.912;4.494;2023-01-28T04:05:22;103011.22;;;4.76;100.00
21111;BME280;10713;51.912;4.494;2023-01-28T04:07:47;103025.19;;;4.78;100.00
21111;BME280;10713;51.912;4.494;2023-01-28T04:10:15;103036.59;;;4.78;100.00
21111;BME280;10713;51.912;4.494;2023-01-28T04:12:41;103041.81;;;4.80;100.00
21111;BME280;10713;51.912;4.494;2023-01-28T04:15:07;103038.22;;;4.73;100.00
21111;BME280;10713;51.912;4.494;2023-01-28T04:17:42;103038.13;;;4.68;100.00
21111;BME280;10713;51.912;4.494;2023-01-28T04:20:09;103038.16;;;4.71;100.00
21111;BME280;10713;51.912;4.494;2023-01-28T04:22:34;103028.59;;;4.72;100.00
21111;BME280;10713;51.912;4.494;2023-01-28T04:24:59;103036.44;;;4.72;100.00
21111;BME280;10713;51.912;4.494;2023-01-28T04:27:25;103025.84;;;4.66;100.00
21111;BME280;10713;51.912;4.494;2023-01-28T04:29:50;103040.66;;;4.64;100.00
21111;BME280;10713;51.912;4.494;2023-01-28T04:32:15;103040.59;;;4.61;100.00
21111;BME280;10713;51.912;4.494;2023-01-28T04:34:41;103038.56;;;4.49;100.00
21111;BME280;10713;51.912;4.494;2023-01-28T04:37:06;103040.13;;;4.39;100.00
21111;BME280;10713;51.912;4.494;2023-01-28T04:39:31;103033.91;;;4.34;100.00
21111;BME280;10713;51.912;4.494;2023-01-28T04:41:57;103036.47;;;4.31;100.00
21111;BME280;10713;51.912;4.494;2023-01-28T04:44:22;103027.53;;;4.21;100.00
21111;BME280;10713;51.912;4.494;2023-01-28T04:46:47;103027.31;;;4.11;100.00
21111;BME280;10713;51.912;4.494;2023-01-28T04:49:13;103021.44;;;4.21;100.00
21111;BME280;10713;51.912;4.494;2023-01-28T04:51:38;103011.06;;;4.25;100.00
21111;BME280;10713;51.912;4.494;2023-01-28T04:54:03;103025.47;;;4.06;100.00
21111;BME280;10713;51.912;4.494;2023-01-28T04:56:29;103022.88;;;4.06;100.00
21111;BME280;10713;51.912;4.494;2023-01-28T04:58:54;103016.03;;;4.13;100.00
21111;BME280;10713;51.912;4.494;2023-01-28T05:01:19;103014.50;;;4.23;100.00
21111;BME280;10713;51.912;4.494;2023-01-28T05:03:45;103018.28;;;4.37;100.00
21111;BME280;10713;51.912;4.494;2023-01-28T05:06:10;103019.28;;;4.42;100.00
21111;BME280;10713;51.912;4.494;2023-01-28T05:08:35;103013.34;;;4.51;100.00
21111;BME280;10713;51.912;4.494;2023-01-28T05:11:01;103014.34;;;4.56;100.00
21111;BME280;10713;51.912;4.494;2023-01-28T05:13:26;103015.09;;;4.50;100.00
21111;BME280;10713;51.912;4.494;2023-01-28T05:15:52;103021.13;;;4.48;100.00
21111;BME280;10713;51.912;4.494;2023-01-28T05:18:17;103029.09;;;4.54;100.00
21111;BME280;10713;51.912;4.494;2023-01-28T05:20:43;103034.38;;;4.56;100.00
21111;BME280;10713;51.912;4.494;2023-01-28T05:23:08;103029.22;;;4.60;100.00
21111;BME280;10713;51.912;4.494;2023-01-28T05:25:33;103027.47;;;4.59;100.00
21111;BME280;10713;51.912;4.494;2023-01-28T05:27:59;103029.16;;;4.56;100.00
21111;BME280;10713;51.912;4.494;2023-01-28T05:30:24;103030.03;;;4.58;100.00
21111;BME280;10713;51.912;4.494;2023-01-28T05:32:54;103027.47;;;4.59;100.00
21111;BME280;10713;51.912;4.494;2023-01-28T05:35:19;103023.16;;;4.63;100.00
21111;BME280;10713;51.912;4.494;2023-01-28T05:37:45;103015.31;;;4.61;100.00
21111;BME280;10713;51.912;4.494;2023-01-28T05:40:10;103026.81;;;4.69;100.00
21111;BME280;10713;51.912;4.494;2023-01-28T05:42:36;103017.88;;;4.60;100.00
21111;BME280;10713;51.912;4.494;2023-01-28T05:45:01;103016.53;;;4.36;100.00
21111;BME280;10713;51.912;4.494;2023-01-28T05:47:27;103018.91;;;4.25;100.00
21111;BME280;10713;51.912;4.494;2023-01-28T05:49:52;103016.09;;;4.16;100.00
21111;BME280;10713;51.912;4.494;2023-01-28T05:52:17;103008.31;;;4.19;100.00
21111;BME280;10713;51.912;4.494;2023-01-28T05:54:43;103018.97;;;4.27;100.00
21111;BME280;10713;51.912;4.494;2023-01-28T05:57:08;103020.00;;;4.35;100.00
21111;BME280;10713;51.912;4.494;2023-01-28T05:59:34;103013.22;;;4.45;100.00
21111;BME280;10713;51.912;4.494;2023-01-28T06:01:59;103016.81;;;4.50;100.00
21111;BME280;10713;51.912;4.494;2023-01-28T06:04:24;103016.75;;;4.47;100.00
21111;BME280;10713;51.912;4.494;2023-01-28T06:06:50;103025.75;;;4.19;100.00
21111;BME280;10713;51.912;4.494;2023-01-28T06:09:15;103026.59;;;4.18;100.00
21111;BME280;10713;51.912;4.494;2023-01-28T06:11:40;103024.06;;;4.22;100.00
21111;BME280;10713;51.912;4.494;2023-01-28T06:14:06;103019.84;;;4.27;100.00
21111;BME280;10713;51.912;4.494;2023-01-28T06:16:31;103022.56;;;4.34;100.00
21111;BME280;10713;51.912;4.494;2023-01-28T06:18:56;103026.19;;;4.40;100.00
21111;BME280;10713;51.912;4.494;2023-01-28T06:21:22;103037.56;;;4.42;100.00
21111;BME280;10713;51.912;4.494;2023-01-28T06:23:47;103031.09;;;4.25;100.00
21111;BME280;10713;51.912;4.494;2023-01-28T06:26:12;103029.41;;;4.27;100.00
21111;BME280;10713;51.912;4.494;2023-01-28T06:28:38;103037.38;;;4.33;100.00
21111;BME280;10713;51.912;4.494;2023-01-28T06:31:03;103042.69;;;4.36;100.00
21111;BME280;10713;51.912;4.494;2023-01-28T06:33:29;103045.47;;;4.45;100.00
21111;BME280;10713;51.912;4.494;2023-01-28T06:35:54;103046.38;;;4.46;100.00
21111;BME280;10713;51.912;4.494;2023-01-28T06:38:20;103049.84;;;4.45;100.00
21111;BME280;10713;51.912;4.494;2023-01-28T06:40:54;103048.97;;;4.44;100.00
21111;BME280;10713;51.912;4.494;2023-01-28T06:43:21;103042.06;;;4.48;100.00
21111;BME280;10713;51.912;4.494;2023-01-28T06:45:52;103040.31;;;4.48;100.00
21111;BME280;10713;51.912;4.494;2023-01-28T06:48:18;103037.06;;;4.59;100.00
21111;BME280;10713;51.912;4.494;2023-01-28T06:50:46;103038.50;;;4.46;100.00
21111;BME280;10713;51.912;4.494;2023-01-28T06:53:11;103041.81;;;4.36;100.00
21111;BME280;10713;51.912;4.494;2023-01-28T06:55:36;103046.09;;;4.32;100.00
21111;BME280;10713;51.912;4.494;2023-01-28T06:58:02;103044.13;;;4.23;100.00
21111;BME280;10713;51.912;4.494;2023-01-28T07:00:27;103044.84;;;4.16;100.00
21111;BME280;10713;51.912;4.494;2023-01-28T07:02:54;103036.06;;;4.13;100.00
21111;BME280;10713;51.912;4.494;2023-01-28T07:05:21;103037.75;;;4.11;100.00
21111;BME280;10713;51.912;4.494;2023-01-28T07:07:46;103034.97;;;4.03;100.00
21111;BME280;10713;51.912;4.494;2023-01-28T07:10:11;103044.34;;;3.95;100.00
21111;BME280;10713;51.912;4.494;2023-01-28T07:12:37;103043.31;;;3.87;100.00
21111;BME280;10713;51.912;4.494;2023-01-28T07:15:03;103049.34;;;3.84;100.00
21111;BME280;10713;51.912;4.494;2023-01-28T07:17:29;103049.88;;;3.71;100.00
21111;BME280;10713;51.912;4.494;2023-01-28T07:19:54;103049.03;;;3.72;100.00
21111;BME280;10713;51.912;4.494;2023-01-28T07:22:19;103052.47;;;3.69;100.00
21111;BME280;10713;51.912;4.494;2023-01-28T07:24:45;103055.88;;;3.67;100.00
21111;BME280;10713;51.912;4.494;2023-01-28T07:27:10;103045.44;;;3.67;100.00
21111;BME280;10713;51.912;4.494;2023-01-28T07:29:36;103051.53;;;3.67;100.00
21111;BME280;10713;51.912;4.494;2023-01-28T07:32:01;103055.88;;;3.67;100.00
21111;BME280;10713;51.912;4.494;2023-01-28T07:34:26;103060.13;;;3.63;100.00
21111;BME280;10713;51.912;4.494;2023-01-28T07:36:52;103052.28;;;3.61;100.00
21111;BME280;10713;51.912;4.494;2023-01-28T07:39:17;103052.88;;;3.51;100.00
21111;BME280;10713;51.912;4.494;2023-01-28T07:41:42;103042.34;;;3.48;100.00
21111;BME280;10713;51.912;4.494;2023-01-28T07:44:08;103045.75;;;3.44;100.00
21111;BME280;10713;51.912;4.494;2023-01-28T07:46:34;103051.84;;;3.45;100.00
21111;BME280;10713;51.912;4.494;2023-01-28T07:48:59;103054.59;;;3.49;100.00
21111;BME280;10713;51.912;4.494;2023-01-28T07:51:24;103059.84;;;3.51;100.00
21111;BME280;10713;51.912;4.494;2023-01-28T07:53:50;103063.41;;;3.54;100.00
21111;BME280;10713;51.912;4.494;2023-01-28T07:56:15;103068.63;;;3.54;100.00
21111;BME280;10713;51.912;4.494;2023-01-28T07:58:40;103073.16;;;3.61;100.00
21111;BME280;10713;51.912;4.494;2023-01-28T08:01:06;103063.66;;;3.64;100.00
21111;BME280;10713;51.912;4.494;2023-01-28T08:03:31;103064.59;;;3.67;100.00
21111;BME280;10713;51.912;4.494;2023-01-28T08:05:57;103057.72;;;3.71;100.00
21111;BME280;10713;51.912;4.494;2023-01-28T08:08:23;103048.84;;;4.38;100.00
21111;BME280;10713;51.912;4.494;2023-01-28T08:10:49;103056.28;;;5.55;100.00
21111;BME280;10713;51.912;4.494;2023-01-28T08:13:16;103047.31;;;6.53;100.00
21111;BME280;10713;51.912;4.494;2023-01-28T08:15:42;103055.88;;;7.13;100.00
21111;BME280;10713;51.912;4.494;2023-01-28T08:18:10;103054.63;;;7.68;100.00
21111;BME280;10713;51.912;4.494;2023-01-28T08:20:37;103058.16;;;7.72;100.00
21111;BME280;10713;51.912;4.494;2023-01-28T08:23:13;103061.09;;;7.11;100.00
21111;BME280;10713;51.912;4.494;2023-01-28T08:25:39;103060.69;;;6.74;100.00
21111;BME280;10713;51.912;4.494;2023-01-28T08:28:05;103071.50;;;6.30;100.00
21111;BME280;10713;51.912;4.494;2023-01-28T08:30:31;103084.09;;;5.95;100.00
21111;BME280;10713;51.912;4.494;2023-01-28T08:32:58;103084.47;;;5.68;100.00
21111;BME280;10713;51.912;4.494;2023-01-28T08:35:24;103090.25;;;5.49;100.00
21111;BME280;10713;51.912;4.494;2023-01-28T08:37:50;103088.28;;;5.35;100.00
21111;BME280;10713;51.912;4.494;2023-01-28T08:40:16;103107.28;;;5.25;100.00
21111;BME280;10713;51.912;4.494;2023-01-28T08:42:48;103118.31;;;5.09;100.00
21111;BME280;10713;51.912;4.494;2023-01-28T08:45:14;103122.31;;;4.91;100.00
21111;BME280;10713;51.912;4.494;2023-01-28T08:48:02;103127.19;;;4.74;100.00
21111;BME280;10713;51.912;4.494;2023-01-28T08:50:36;103125.25;;;4.66;100.00
21111;BME280;10713;51.912;4.494;2023-01-28T08:53:04;103125.81;;;4.49;100.00
21111;BME280;10713;51.912;4.494;2023-01-28T08:55:30;103135.25;;;4.44;100.00
21111;BME280;10713;51.912;4.494;2023-01-28T08:57:55;103125.41;;;4.33;100.00
21111;BME280;10713;51.912;4.494;2023-01-28T09:00:21;103135.72;;;4.26;100.00
21111;BME280;10713;51.912;4.494;2023-01-28T09:02:51;103127.63;;;4.16;100.00
21111;BME280;10713;51.912;4.494;2023-01-28T09:05:17;103128.44;;;4.15;100.00
21111;BME280;10713;51.912;4.494;2023-01-28T09:07:42;103120.06;;;4.28;100.00
21111;BME280;10713;51.912;4.494;2023-01-28T09:10:08;103123.25;;;4.53;100.00
21111;BME280;10713;51.912;4.494;2023-01-28T09:12:35;103121.00;;;4.69;100.00
21111;BME280;10713;51.912;4.494;2023-01-28T09:15:00;103125.75;;;4.87;100.00
21111;BME280;10713;51.912;4.494;2023-01-28T09:17:26;103130.91;;;5.27;100.00
21111;BME280;10713;51.912;4.494;2023-01-28T09:19:51;103131.91;;;5.35;100.00
21111;BME280;10713;51.912;4.494;2023-01-28T09:22:17;103131.22;;;5.45;100.00
21111;BME280;10713;51.912;4.494;2023-01-28T09:24:42;103134.31;;;5.71;100.00
21111;BME280;10713;51.912;4.494;2023-01-28T09:27:07;103142.31;;;6.30;100.00
21111;BME280;10713;51.912;4.494;2023-01-28T09:29:33;103139.34;;;6.68;100.00
21111;BME280;10713;51.912;4.494;2023-01-28T09:31:59;103136.63;;;6.59;100.00
21111;BME280;10713;51.912;4.494;2023-01-28T09:34:24;103153.56;;;6.22;100.00
21111;BME280;10713;51.912;4.494;2023-01-28T09:36:50;103162.53;;;5.86;100.00
21111;BME280;10713;51.912;4.494;2023-01-28T09:39:15;103150.00;;;5.68;100.00
21111;BME280;10713;51.912;4.494;2023-01-28T09:47:40;103166.09;;;5.42;100.00
21111;BME280;10713;51.912;4.494;2023-01-28T09:50:10;103157.31;;;5.87;100.00
21111;BME280;10713;51.912;4.494;2023-01-28T09:52:40;103137.41;;;7.23;100.00
21111;BME280;10713;51.912;4.494;2023-01-28T09:55:30;103131.69;;;8.82;100.00
21111;BME280;10713;51.912;4.494;2023-01-28T09:57:57;103125.78;;;9.60;100.00
21111;BME280;10713;51.912;4.494;2023-01-28T10:00:28;103127.53;;;10.37;100.00
21111;BME280;10713;51.912;4.494;2023-01-28T10:08:48;103129.34;;;12.85;81.35
21111;BME280;10713;51.912;4.494;2023-01-28T10:14:38;103134.06;;;14.38;77.57
21111;BME280;10713;51.912;4.494;2023-01-28T10:20:14;103131.81;;;14.15;66.27
21111;BME280;10713;51.912;4.494;2023-01-28T10:22:46;103129.16;;;14.16;66.09
21111;BME280;10713;51.912;4.494;2023-01-28T10:25:18;103126.09;;;13.88;64.17
21111;BME280;10713;51.912;4.494;2023-01-28T10:27:44;103131.88;;;13.59;65.09
21111;BME280;10713;51.912;4.494;2023-01-28T10:30:17;103126.69;;;13.50;61.64
21111;BME280;10713;51.912;4.494;2023-01-28T10:33:05;103133.34;;;13.17;60.22
21111;BME280;10713;51.912;4.494;2023-01-28T10:35:39;103125.97;;;12.71;65.32
21111;BME280;10713;51.912;4.494;2023-01-28T10:38:07;103124.34;;;11.57;69.57
21111;BME280;10713;51.912;4.494;2023-01-28T10:40:35;103131.91;;;10.46;78.61
21111;BME280;10713;51.912;4.494;2023-01-28T10:43:00;103131.03;;;9.69;84.67
21111;BME280;10713;51.912;4.494;2023-01-28T10:45:29;103123.06;;;9.29;93.58
21111;BME280;10713;51.912;4.494;2023-01-28T10:48:07;103125.59;;;8.91;96.29
21111;BME280;10713;51.912;4.494;2023-01-28T10:50:37;103130.66;;;8.55;98.65
21111;BME280;10713;51.912;4.494;2023-01-28T10:53:13;103133.28;;;8.48;100.00
21111;BME280;10713;51.912;4.494;2023-01-28T10:55:55;103121.69;;;8.29;99.55
21111;BME280;10713;51.912;4.494;2023-01-28T10:58:32;103124.09;;;7.94;100.00
21111;BME280;10713;51.912;4.494;2023-01-28T11:00:59;103127.44;;;7.76;100.00
21111;BME280;10713;51.912;4.494;2023-01-28T11:03:26;103121.22;;;7.69;100.00
21111;BME280;10713;51.912;4.494;2023-01-28T11:05:53;103106.91;;;7.36;100.00
21111;BME280;10713;51.912;4.494;2023-01-28T11:08:20;103095.41;;;7.27;100.00
21111;BME280;10713;51.912;4.494;2023-01-28T11:10:46;103085.00;;;7.33;100.00
21111;BME280;10713;51.912;4.494;2023-01-28T11:13:26;103076.38;;;7.52;100.00
21111;BME280;10713;51.912;4.494;2023-01-28T11:18:30;103061.16;;;8.23;100.00
21111;BME280;10713;51.912;4.494;2023-01-28T11:20:58;103047.19;;;8.36;100.00
21111;BME280;10713;51.912;4.494;2023-01-28T11:23:31;103040.03;;;8.12;100.00
21111;BME280;10713;51.912;4.494;2023-01-28T11:26:04;103054.75;;;7.84;100.00
21111;BME280;10713;51.912;4.494;2023-01-28T11:28:30;103048.25;;;7.40;100.00
21111;BME280;10713;51.912;4.494;2023-01-28T11:30:58;103044.38;;;7.03;100.00
21111;BME280;10713;51.912;4.494;2023-01-28T11:33:37;103031.13;;;6.92;100.00
21111;BME280;10713;51.912;4.494;2023-01-28T11:36:19;103026.91;;;7.05;100.00
21111;BME280;10713;51.912;4.494;2023-01-28T11:39:13;103025.28;;;7.21;100.00
21111;BME280;10713;51.912;4.494;2023-01-28T11:41:40;103013.94;;;7.22;100.00
21111;BME280;10713;51.912;4.494;2023-01-28T11:44:25;103006.09;;;7.27;100.00
21111;BME280;10713;51.912;4.494;2023-01-28T11:55:36;103025.59;;;7.50;100.00
21111;BME280;10713;51.912;4.494;2023-01-28T11:58:41;103037.09;;;7.67;100.00
21111;BME280;10713;51.912;4.494;2023-01-28T12:01:46;103034.47;;;7.67;100.00
21111;BME280;10713;51.912;4.494;2023-01-28T12:12:16;103044.56;;;8.36;100.00
21111;BME280;10713;51.912;4.494;2023-01-28T12:20:18;103051.63;;;8.39;100.00
21111;BME280;10713;51.912;4.494;2023-01-28T12:25:51;103060.34;;;8.30;100.00
21111;BME280;10713;51.912;4.494;2023-01-28T12:31:46;103076.06;;;8.27;100.00
21111;BME280;10713;51.912;4.494;2023-01-28T12:42:57;103055.75;;;8.00;100.00
21111;BME280;10713;51.912;4.494;2023-01-28T12:47:57;103045.19;;;7.95;100.00
21111;BME280;10713;51.912;4.494;2023-01-28T12:50:31;103046.00;;;7.89;100.00
21111;BME280;10713;51.912;4.494;2023-01-28T12:53:10;103029.28;;;7.77;100.00
21111;BME280;10713;51.912;4.494;2023-01-28T12:55:45;103018.66;;;7.61;100.00
21111;BME280;10713;51.912;4.494;2023-01-28T12:58:17;103001.88;;;7.45;100.00
21111;BME280;10713;51.912;4.494;2023-01-28T13:00:48;103004.28;;;7.21;100.00
21111;BME280;10713;51.912;4.494;2023-01-28T13:03:27;102983.00;;;6.90;100.00
21111;BME280;10713;51.912;4.494;2023-01-28T13:06:28;102977.56;;;6.73;100.00
21111;BME280;10713;51.912;4.494;2023-01-28T13:09:00;102964.25;;;6.57;100.00
21111;BME280;10713;51.912;4.494;2023-01-28T13:11:32;102962.41;;;6.48;100.00
21111;BME280;10713;51.912;4.494;2023-01-28T13:13:59;102958.03;;;6.47;100.00
21111;BME280;10713;51.912;4.494;2023-01-28T13:16:25;102949.34;;;6.54;100.00
21111;BME280;10713;51.912;4.494;2023-01-28T13:18:51;102952.06;;;6.63;100.00
21111;BME280;10713;51.912;4.494;2023-01-28T13:23:49;102975.97;;;6.88;100.00
21111;BME280;10713;51.912;4.494;2023-01-28T13:28:45;102966.19;;;6.74;100.00
21111;BME280;10713;51.912;4.494;2023-01-28T13:31:13;102961.75;;;6.67;100.00
21111;BME280;10713;51.912;4.494;2023-01-28T13:33:45;102968.81;;;6.74;100.00
21111;BME280;10713;51.912;4.494;2023-01-28T13:36:21;102974.88;;;6.69;100.00
21111;BME280;10713;51.912;4.494;2023-01-28T13:39:20;102961.03;;;6.82;100.00
21111;BME280;10713;51.912;4.494;2023-01-28T13:41:49;102960.19;;;6.86;100.00
21111;BME280;10713;51.912;4.494;2023-01-28T13:46:49;102971.59;;;6.88;100.00
21111;BME280;10713;51.912;4.494;2023-01-28T13:49:22;102974.19;;;6.85;100.00
21111;BME280;10713;51.912;4.494;2023-01-28T13:54:35;102980.31;;;6.86;100.00
21111;BME280;10713;51.912;4.494;2023-01-28T14:16:31;102985.75;;;7.01;100.00
21111;BME280;10713;51.912;4.494;2023-01-28T14:19:00;102996.25;;;7.06;100.00
21111;BME280;10713;51.912;4.494;2023-01-28T14:21:26;102996.31;;;7.12;100.00
21111;BME280;10713;51.912;4.494;2023-01-28T14:23:54;102995.50;;;7.17;100.00
21111;BME280;10713;51.912;4.494;2023-01-28T14:31:36;102993.06;;;7.36;100.00
21111;BME280;10713;51.912;4.494;2023-01-28T14:34:22;102979.88;;;7.33;100.00
21111;BME280;10713;51.912;4.494;2023-01-28T14:36:50;102992.13;;;7.31;100.00
21111;BME280;10713;51.912;4.494;2023-01-28T14:39:17;102993.06;;;7.36;100.00
21111;BME280;10713;51.912;4.494;2023-01-28T14:41:46;102986.94;;;7.40;100.00
21111;BME280;10713;51.912;4.494;2023-01-28T14:44:25;102971.19;;;7.40;100.00
21111;BME280;10713;51.912;4.494;2023-01-28T14:49:35;102979.88;;;7.33;100.00
21111;BME280;10713;51.912;4.494;2023-01-28T14:54:59;102980.63;;;7.16;100.00
21111;BME280;10713;51.912;4.494;2023-01-28T14:57:39;102985.13;;;7.30;100.00
21111;BME280;10713;51.912;4.494;2023-01-28T15:00:21;102986.00;;;7.32;100.00
21111;BME280;10713;51.912;4.494;2023-01-28T15:02:47;102984.25;;;7.31;100.00